Time;durP1;ratioP1;P1;durP2;ratioP2;P2;SDS_P1;SDS_P2;PMS_P1;PMS_P2;Temp;Humidity;BMP_temperature;BMP_pressure;BME280_temperature;BME280_humidity;BME280_pressure;Samples;Min_cycle;Max_cycle;Signal;HPM_P1;HPM_P2
2022/07/04 00:01:35;;;;;;;2.25;1.87;;;21.50;55.80;;;;;;637758;224;26565;-70
2022/07/04 00:04:03;;;;;;;1.87;1.50;;;21.40;56.30;;;;;;637752;224;26567;-70
2022/07/04 00:06:31;;;;;;;2.55;1.65;;;21.30;56.50;;;;;;637750;223;26585;-70
2022/07/04 00:08:59;;;;;;;1.60;1.50;;;21.30;56.90;;;;;;637743;224;26507;-70
2022/07/04 00:11:27;;;;;;;1.17;1.17;;;21.20;57.30;;;;;;637752;224;26530;-70
2022/07/04 00:13:55;;;;;;;2.28;1.40;;;21.10;57.60;;;;;;637498;224;26598;-70
2022/07/04 00:16:23;;;;;;;2.15;1.60;;;21.00;57.90;;;;;;637455;224;26556;-70
2022/07/04 00:18:51;;;;;;;1.77;1.60;;;20.90;58.00;;;;;;637413;224;26575;-70
2022/07/04 00:21:19;;;;;;;2.12;1.62;;;20.90;58.20;;;;;;637476;224;26581;-70
2022/07/04 00:23:46;;;;;;;1.60;1.52;;;20.90;58.20;;;;;;637473;224;26600;-70
2022/07/04 00:26:13;;;;;;;2.30;1.25;;;20.90;58.40;;;;;;637423;224;26597;-70
2022/07/04 00:28:41;;;;;;;1.40;1.30;;;20.80;58.50;;;;;;637421;225;26851;-70
2022/07/04 00:31:08;;;;;;;3.08;1.70;;;20.80;58.90;;;;;;637440;224;26809;-70
2022/07/04 00:33:35;;;;;;;2.33;1.58;;;20.70;59.20;;;;;;637404;224;26815;-70
2022/07/04 00:36:02;;;;;;;1.27;1.27;;;20.60;59.70;;;;;;637431;224;26574;-70
2022/07/04 00:38:30;;;;;;;3.03;1.37;;;20.50;61.60;;;;;;637403;224;26611;-70
2022/07/04 00:40:58;;;;;;;4.80;1.50;;;20.30;61.90;;;;;;637360;225;26601;-70
2022/07/04 00:43:26;;;;;;;3.35;1.60;;;20.30;61.90;;;;;;637432;224;26569;-70
2022/07/04 00:45:53;;;;;;;1.35;1.35;;;20.30;62.60;;;;;;637316;225;26580;-70
2022/07/04 00:48:20;;;;;;;2.50;1.27;;;20.20;63.50;;;;;;637961;223;26783;-70
2022/07/04 00:50:47;;;;;;;1.70;1.60;;;20.20;64.20;;;;;;638986;223;26586;-70
2022/07/04 00:53:14;;;;;;;2.95;1.27;;;20.10;63.60;;;;;;638589;224;26879;-70
2022/07/04 00:55:41;;;;;;;1.83;1.20;;;20.10;65.20;;;;;;638381;224;26796;-70
2022/07/04 00:58:08;;;;;;;1.37;1.30;;;20.00;65.30;;;;;;638171;225;26733;-70
2022/07/04 01:00:36;;;;;;;4.30;1.80;;;20.00;66.00;;;;;;638077;224;26527;-70
2022/07/04 01:03:03;;;;;;;1.30;1.30;;;20.00;66.20;;;;;;638072;224;26728;-70
2022/07/04 01:05:30;;;;;;;1.92;1.30;;;20.00;66.80;;;;;;638078;224;26517;-70
2022/07/04 01:07:57;;;;;;;1.55;1.40;;;19.90;67.10;;;;;;637730;225;26843;-70
2022/07/04 01:10:25;;;;;;;1.62;1.40;;;19.90;67.70;;;;;;637764;224;26542;-70
2022/07/04 01:12:54;;;;;;;1.52;1.42;;;19.80;68.20;;;;;;637746;225;26572;-70
2022/07/04 01:15:20;;;;;;;1.50;1.48;;;19.70;68.90;;;;;;637713;224;26811;-70
2022/07/04 01:17:48;;;;;;;2.00;1.42;;;19.60;70.40;;;;;;637745;225;26551;-70
2022/07/04 01:20:16;;;;;;;1.50;1.40;;;19.60;71.10;;;;;;637784;224;26550;-70
2022/07/04 01:22:44;;;;;;;1.45;1.35;;;19.50;72.10;;;;;;637835;224;26607;-70
2022/07/04 01:25:14;;;;;;;1.77;1.33;;;19.40;72.90;;;;;;637544;224;26566;-70
2022/07/04 01:27:39;;;;;;;2.15;1.30;;;19.40;72.90;;;;;;637323;225;26570;-70
2022/07/04 01:30:07;;;;;;;1.92;1.58;;;19.40;73.70;;;;;;637442;224;26584;-70
2022/07/04 01:32:34;;;;;;;2.28;1.23;;;19.30;74.30;;;;;;637403;224;26806;-70
2022/07/04 01:35:01;;;;;;;1.30;1.30;;;19.30;75.40;;;;;;637467;226;26783;-70
2022/07/04 01:37:29;;;;;;;1.30;1.30;;;19.20;76.00;;;;;;637397;224;26870;-70
2022/07/04 01:39:56;;;;;;;1.50;1.40;;;19.20;76.80;;;;;;637423;224;26547;-70
2022/07/04 01:42:23;;;;;;;1.25;1.15;;;19.10;77.60;;;;;;637410;224;26796;-70
2022/07/04 01:44:52;;;;;;;1.67;1.50;;;19.10;78.80;;;;;;637470;224;26583;-70
2022/07/04 01:47:19;;;;;;;1.65;1.55;;;19.10;78.80;;;;;;637378;224;26556;-70
2022/07/04 01:49:46;;;;;;;2.15;1.30;;;19.10;79.40;;;;;;637414;225;26591;-70
2022/07/04 01:52:15;;;;;;;1.50;1.40;;;18.90;81.30;;;;;;637399;224;26548;-70
2022/07/04 01:54:42;;;;;;;2.47;1.52;;;18.90;82.20;;;;;;637388;225;26543;-70
2022/07/04 01:57:12;;;;;;;1.73;1.27;;;18.80;83.60;;;;;;637434;224;26621;-70
2022/07/04 02:02:11;;;;;;;1.85;1.20;;;18.70;84.80;;;;;;639070;224;26592;-70
2022/07/04 02:04:38;;;;;;;1.40;1.30;;;18.70;87.20;;;;;;638606;224;26805;-70
2022/07/04 02:07:05;;;;;;;1.65;1.30;;;18.60;89.20;;;;;;638388;224;26573;-70
2022/07/04 02:09:32;;;;;;;1.35;1.35;;;18.50;90.70;;;;;;638224;224;26831;-70
2022/07/04 02:14:33;;;;;;;1.30;1.30;;;18.30;93.50;;;;;;638080;224;26728;-70
2022/07/04 02:17:01;;;;;;;6.00;1.60;;;18.10;95.30;;;;;;638034;224;26539;-70
2022/07/04 02:19:29;;;;;;;1.50;1.50;;;18.10;96.30;;;;;;637764;224;26576;-70
2022/07/04 02:21:57;;;;;;;1.80;1.70;;;18.00;97.60;;;;;;637726;225;26563;-70
2022/07/04 02:24:24;;;;;;;1.80;1.70;;;18.00;97.60;;;;;;637742;224;26551;-70
2022/07/04 02:26:51;;;;;;;1.75;1.70;;;17.90;98.50;;;;;;637795;223;26749;-70
2022/07/04 02:29:19;;;;;;;2.12;1.83;;;17.90;99.10;;;;;;637704;224;26805;-70
2022/07/04 02:31:46;;;;;;;2.05;1.95;;;17.80;99.60;;;;;;637793;223;26523;-66
2022/07/04 02:34:13;;;;;;;2.35;2.15;;;17.80;99.90;;;;;;637705;224;26785;-66
2022/07/04 02:36:40;;;;;;;2.00;1.90;;;17.80;99.90;;;;;;637500;224;26582;-66
2022/07/04 02:39:07;;;;;;;3.15;2.10;;;17.80;99.90;;;;;;637395;224;26768;-66
2022/07/04 02:41:35;;;;;;;2.30;2.20;;;17.70;99.90;;;;;;637444;224;26575;-66
2022/07/04 02:44:02;;;;;;;3.62;2.03;;;17.70;99.90;;;;;;637496;224;26759;-66
2022/07/04 02:46:32;;;;;;;1.83;1.73;;;17.60;99.90;;;;;;637477;226;26780;-66
2022/07/04 02:48:58;;;;;;;2.80;1.90;;;17.60;99.90;;;;;;637288;225;26559;-66
2022/07/04 02:51:26;;;;;;;2.10;2.00;;;17.60;99.90;;;;;;637454;225;26582;-66
2022/07/04 02:53:54;;;;;;;2.55;2.35;;;17.70;99.90;;;;;;637417;224;26573;-67
2022/07/04 02:56:22;;;;;;;2.25;2.05;;;17.60;99.90;;;;;;637391;225;26581;-67
2022/07/04 02:58:49;;;;;;;2.58;2.20;;;17.60;99.90;;;;;;637394;224;26567;-67
2022/07/04 03:01:19;;;;;;;2.10;2.00;;;17.60;99.90;;;;;;637423;224;26650;-67
2022/07/04 03:03:44;;;;;;;2.15;1.98;;;17.60;99.90;;;;;;637274;225;26560;-67
2022/07/04 03:06:12;;;;;;;2.17;2.05;;;17.60;99.90;;;;;;637443;224;26786;-67
2022/07/04 03:08:38;;;;;;;2.33;1.85;;;17.50;99.90;;;;;;637350;224;26527;-67
2022/07/04 03:11:06;;;;;;;2.30;2.20;;;17.50;99.90;;;;;;637517;223;26874;-67
2022/07/04 03:13:33;;;;;;;3.60;2.10;;;17.50;99.90;;;;;;639218;223;26523;-68
2022/07/04 03:16:00;;;;;;;2.03;1.83;;;17.50;99.90;;;;;;638609;224;26786;-67
2022/07/04 03:18:27;;;;;;;2.00;1.90;;;17.50;99.90;;;;;;638334;224;26558;-67
2022/07/04 03:20:54;;;;;;;2.67;2.10;;;17.50;99.90;;;;;;638254;223;26827;-67
2022/07/04 03:23:22;;;;;;;2.12;2.03;;;17.50;99.90;;;;;;638045;225;26776;-67
2022/07/04 03:25:49;;;;;;;2.15;1.90;;;17.50;99.90;;;;;;638077;224;26507;-67
2022/07/04 03:28:17;;;;;;;2.70;2.30;;;17.50;99.90;;;;;;638035;224;26766;-67
2022/07/04 03:30:45;;;;;;;2.80;2.05;;;17.50;99.90;;;;;;637849;223;26589;-68
2022/07/04 03:33:13;;;;;;;2.05;1.95;;;17.50;99.90;;;;;;637718;225;26567;-68
2022/07/04 03:35:41;;;;;;;2.00;1.90;;;17.50;99.90;;;;;;637705;223;26559;-66
2022/07/04 03:38:09;;;;;;;2.35;2.10;;;17.60;99.90;;;;;;637755;224;26570;-67
2022/07/04 03:40:38;;;;;;;3.50;2.42;;;17.60;99.90;;;;;;637702;223;26624;-66
2022/07/04 03:43:05;;;;;;;1.92;1.83;;;17.50;99.90;;;;;;637664;225;26775;-66
2022/07/04 03:45:32;;;;;;;2.20;2.00;;;17.50;99.90;;;;;;637787;224;26580;-66
2022/07/04 03:48:02;;;;;;;2.40;2.20;;;17.50;99.90;;;;;;637548;224;26558;-67
2022/07/04 03:50:27;;;;;;;2.10;2.00;;;17.60;99.90;;;;;;637461;224;26608;-67
2022/07/04 03:52:55;;;;;;;2.35;2.15;;;17.60;99.90;;;;;;637431;224;26598;-67
2022/07/04 03:55:22;;;;;;;2.47;2.28;;;17.60;99.90;;;;;;637382;224;26561;-67
2022/07/04 03:57:50;;;;;;;2.55;2.35;;;17.60;99.90;;;;;;637390;226;26854;-67
2022/07/04 04:00:17;;;;;;;4.18;2.33;;;17.60;99.90;;;;;;637355;224;26587;-67
2022/07/04 04:02:44;;;;;;;2.53;2.33;;;17.60;99.90;;;;;;637410;224;26848;-67
2022/07/04 04:07:44;;;;;;;3.00;2.40;;;17.60;99.90;;;;;;637422;225;26878;-67
2022/07/04 04:10:12;;;;;;;2.67;2.47;;;17.60;99.90;;;;;;637493;223;26547;-67
2022/07/04 04:12:39;;;;;;;3.45;2.70;;;17.70;99.90;;;;;;637546;224;26560;-66
2022/07/04 04:15:07;;;;;;;2.87;2.62;;;17.70;99.90;;;;;;640091;221;26518;-67
2022/07/04 04:17:35;;;;;;;2.50;2.33;;;17.70;99.90;;;;;;637609;225;26540;-67
2022/07/04 04:20:03;;;;;;;2.40;2.20;;;17.90;99.90;;;;;;637714;223;26607;-67
2022/07/04 04:22:30;;;;;;;2.85;2.65;;;17.90;99.90;;;;;;638602;225;26484;-67
2022/07/04 04:24:58;;;;;;;3.28;2.35;;;17.80;99.90;;;;;;640808;223;26785;-67
2022/07/04 04:27:25;;;;;;;2.90;2.60;;;17.80;99.90;;;;;;640148;224;26860;-67
2022/07/04 04:29:53;;;;;;;3.70;2.70;;;17.90;99.90;;;;;;639962;223;26612;-67
2022/07/04 04:32:20;;;;;;;2.78;2.33;;;18.00;99.90;;;;;;639887;224;26782;-67
2022/07/04 04:34:48;;;;;;;2.72;2.50;;;18.00;99.90;;;;;;639543;224;26516;-67
2022/07/04 04:37:16;;;;;;;2.80;2.70;;;18.10;99.90;;;;;;639519;224;26515;-67
2022/07/04 04:39:44;;;;;;;3.35;2.40;;;18.10;99.90;;;;;;639516;223;26541;-67
2022/07/04 04:42:12;;;;;;;2.53;2.33;;;18.10;99.90;;;;;;639243;224;26521;-67
2022/07/04 04:44:40;;;;;;;3.50;2.35;;;18.20;99.90;;;;;;639223;224;26586;-67
2022/07/04 04:47:08;;;;;;;2.20;2.10;;;18.30;99.90;;;;;;639223;224;26578;-67
2022/07/04 04:49:36;;;;;;;2.17;2.05;;;18.30;99.90;;;;;;639183;224;26543;-68
2022/07/04 04:52:05;;;;;;;2.70;2.50;;;18.30;99.90;;;;;;639262;223;27201;-67
2022/07/04 04:54:31;;;;;;;3.00;2.00;;;18.40;99.90;;;;;;639208;224;26863;-67
2022/07/04 04:56:58;;;;;;;2.10;2.00;;;18.50;99.90;;;;;;639204;225;26627;-68
2022/07/04 04:59:25;;;;;;;2.25;2.15;;;18.60;99.90;;;;;;639066;224;26570;-67
2022/07/04 05:01:53;;;;;;;2.78;2.58;;;18.80;99.90;;;;;;638874;224;26559;-68
2022/07/04 05:04:21;;;;;;;2.62;2.45;;;18.50;99.90;;;;;;638912;224;26534;-67
2022/07/04 05:06:49;;;;;;;2.40;2.20;;;18.60;99.90;;;;;;638870;224;26567;-68
2022/07/04 05:09:17;;;;;;;2.62;2.42;;;18.60;99.90;;;;;;638825;224;26574;-66
2022/07/04 05:11:45;;;;;;;2.67;2.45;;;18.60;99.90;;;;;;638872;224;26561;-67
2022/07/04 05:14:12;;;;;;;2.65;2.45;;;18.80;99.90;;;;;;638836;224;26566;-67
2022/07/04 05:16:39;;;;;;;2.70;2.50;;;19.00;99.90;;;;;;638838;224;26813;-66
2022/07/04 05:19:07;;;;;;;3.25;2.28;;;19.10;99.30;;;;;;638897;224;26565;-66
2022/07/04 05:21:34;;;;;;;2.62;2.33;;;19.20;98.70;;;;;;638936;225;26815;-67
2022/07/04 05:24:01;;;;;;;2.20;2.10;;;19.30;98.30;;;;;;638885;224;26572;-67
2022/07/04 05:26:28;;;;;;;2.12;2.00;;;19.40;97.90;;;;;;638902;224;26785;-67
2022/07/04 05:28:56;;;;;;;3.03;2.42;;;19.50;97.60;;;;;;638859;224;26597;-66
2022/07/04 05:31:24;;;;;;;2.53;2.33;;;19.50;97.20;;;;;;638845;223;26897;-67
2022/07/04 05:33:50;;;;;;;2.47;1.77;;;19.50;97.20;;;;;;638898;224;27139;-66
2022/07/04 05:36:18;;;;;;;3.65;2.30;;;19.40;97.00;;;;;;640605;223;26577;-67
2022/07/04 05:38:45;;;;;;;2.47;2.28;;;19.50;96.70;;;;;;640207;222;26514;-66
2022/07/04 05:41:13;;;;;;;3.70;2.35;;;19.20;96.80;;;;;;639955;223;26592;-67
2022/07/04 05:43:41;;;;;;;2.33;2.15;;;19.10;96.50;;;;;;639882;223;26527;-67
2022/07/04 05:46:09;;;;;;;2.28;2.05;;;19.20;96.40;;;;;;639620;224;26503;-67
2022/07/04 05:48:37;;;;;;;2.62;2.00;;;19.20;96.40;;;;;;639652;224;26526;-67
2022/07/04 05:51:04;;;;;;;2.45;1.87;;;19.20;96.40;;;;;;639582;223;26562;-67
2022/07/04 05:53:31;;;;;;;2.50;1.90;;;19.40;95.70;;;;;;639428;224;26527;-67
2022/07/04 05:55:58;;;;;;;2.12;1.98;;;19.60;95.20;;;;;;639306;224;26510;-67
2022/07/04 05:58:26;;;;;;;3.37;1.80;;;19.60;94.80;;;;;;639285;224;26517;-67
2022/07/04 06:00:53;;;;;;;1.95;1.85;;;19.50;94.20;;;;;;639194;224;26803;-67
2022/07/04 06:03:20;;;;;;;1.80;1.70;;;19.40;94.40;;;;;;639280;224;26510;-67
2022/07/04 06:05:49;;;;;;;2.45;1.60;;;19.30;94.20;;;;;;639202;224;26929;-67
2022/07/04 06:08:14;;;;;;;1.77;1.67;;;19.20;94.30;;;;;;639130;224;26724;-67
2022/07/04 06:10:42;;;;;;;1.65;1.58;;;19.20;94.00;;;;;;639099;224;26884;-67
2022/07/04 06:13:10;;;;;;;1.92;1.65;;;19.50;93.40;;;;;;638858;224;26581;-67
2022/07/04 06:15:38;;;;;;;1.42;1.42;;;19.70;93.10;;;;;;638922;224;26566;-67
2022/07/04 06:18:06;;;;;;;1.30;1.30;;;19.60;92.70;;;;;;638870;224;26559;-67
2022/07/04 06:20:35;;;;;;;1.70;1.60;;;19.60;92.60;;;;;;638877;223;26599;-67
2022/07/04 06:23:01;;;;;;;2.72;1.85;;;19.60;92.60;;;;;;638852;224;26562;-68
2022/07/04 06:25:29;;;;;;;2.25;1.67;;;19.70;91.80;;;;;;638825;224;26550;-67
2022/07/04 06:27:57;;;;;;;1.80;1.70;;;19.90;90.50;;;;;;638877;224;26564;-67
2022/07/04 06:30:25;;;;;;;1.60;1.50;;;20.00;89.30;;;;;;638878;224;26603;-67
2022/07/04 06:32:53;;;;;;;2.15;1.40;;;19.90;89.10;;;;;;638864;223;26643;-68
2022/07/04 06:37:55;;;;;;;3.20;1.50;;;20.20;79.10;;;;;;638769;224;26802;-67
2022/07/04 06:40:22;;;;;;;1.12;1.02;;;20.20;74.90;;;;;;638891;224;26583;-67
2022/07/04 06:42:50;;;;;;;0.82;0.77;;;20.10;72.40;;;;;;638878;224;27200;-67
2022/07/04 06:45:17;;;;;;;0.88;0.88;;;20.20;71.50;;;;;;638767;224;26575;-67
2022/07/04 06:47:44;;;;;;;0.95;0.90;;;20.10;71.30;;;;;;640489;223;26821;-66
2022/07/04 06:50:11;;;;;;;1.52;0.75;;;20.50;70.00;;;;;;640160;223;26539;-67
2022/07/04 06:52:38;;;;;;;0.57;0.57;;;20.50;69.80;;;;;;639869;223;26823;-67
2022/07/04 06:55:06;;;;;;;0.88;0.80;;;20.70;69.40;;;;;;639769;223;26556;-67
2022/07/04 06:57:33;;;;;;;0.50;0.50;;;20.90;69.20;;;;;;639414;224;26525;-67
2022/07/04 07:00:00;;;;;;;0.60;0.60;;;21.00;67.40;;;;;;639461;223;26498;-67
2022/07/04 07:02:28;;;;;;;1.10;1.00;;;20.70;67.10;;;;;;639484;224;26502;-67
2022/07/04 07:04:56;;;;;;;0.70;0.70;;;20.90;66.20;;;;;;639347;224;26517;-67
2022/07/04 07:07:25;;;;;;;1.05;0.90;;;21.10;64.20;;;;;;639186;224;26573;-67
2022/07/04 07:09:52;;;;;;;1.20;0.68;;;21.20;64.10;;;;;;639259;224;26597;-67
2022/07/04 07:12:19;;;;;;;0.80;0.80;;;21.20;64.10;;;;;;639151;224;26517;-67
2022/07/04 07:14:46;;;;;;;0.82;0.80;;;21.40;63.70;;;;;;639236;224;26502;-67
2022/07/04 07:17:15;;;;;;;0.90;0.85;;;21.40;63.10;;;;;;639213;224;26778;-67
2022/07/04 07:19:42;;;;;;;0.77;0.77;;;21.60;63.60;;;;;;639172;224;26499;-67
2022/07/04 07:22:08;;;;;;;0.68;0.62;;;21.60;63.50;;;;;;639110;224;26778;-67
2022/07/04 07:24:35;;;;;;;1.48;0.70;;;21.30;64.60;;;;;;638953;224;26571;-67
2022/07/04 07:27:03;;;;;;;0.60;0.60;;;21.50;63.40;;;;;;638891;224;26922;-67
2022/07/04 07:29:30;;;;;;;1.37;0.90;;;21.50;62.80;;;;;;638858;225;26611;-68
2022/07/04 07:31:58;;;;;;;0.75;0.65;;;22.60;60.30;;;;;;638906;224;26544;-67
2022/07/04 07:34:26;;;;;;;1.75;0.70;;;22.90;59.20;;;;;;638909;224;26564;-67
2022/07/04 07:36:54;;;;;;;0.60;0.60;;;23.00;58.00;;;;;;638887;224;26573;-67
2022/07/04 07:39:22;;;;;;;0.85;0.70;;;22.50;57.80;;;;;;638801;224;26555;-67
2022/07/04 07:41:49;;;;;;;0.60;0.60;;;22.40;57.80;;;;;;638872;224;26550;-67
2022/07/04 07:44:16;;;;;;;0.88;0.60;;;22.50;58.20;;;;;;638915;224;26569;-67
2022/07/04 07:46:44;;;;;;;0.77;0.75;;;22.10;58.90;;;;;;638877;223;26847;-67
2022/07/04 07:49:14;;;;;;;1.20;0.85;;;21.70;59.70;;;;;;638867;224;26548;-67
2022/07/04 07:51:42;;;;;;;1.42;0.70;;;21.70;58.80;;;;;;638861;225;26573;-67
2022/07/04 07:54:09;;;;;;;0.65;0.65;;;21.70;58.80;;;;;;638899;224;26565;-67
2022/07/04 07:56:36;;;;;;;0.70;0.70;;;21.40;59.00;;;;;;638980;224;26583;-68
2022/07/04 07:59:04;;;;;;;0.60;0.60;;;21.60;58.90;;;;;;640278;223;26851;-68
2022/07/04 08:01:31;;;;;;;1.02;0.80;;;21.60;58.90;;;;;;640206;224;26768;-68
2022/07/04 08:06:32;;;;;;;0.62;0.62;;;21.80;59.50;;;;;;639753;225;26564;-68
2022/07/04 08:08:58;;;;;;;0.50;0.50;;;21.80;59.50;;;;;;639367;224;26511;-68
2022/07/04 08:11:25;;;;;;;0.60;0.60;;;22.00;59.50;;;;;;639936;224;26767;-68
2022/07/04 08:13:53;;;;;;;0.60;0.60;;;21.70;59.40;;;;;;639972;224;26486;-68
2022/07/04 08:16:20;;;;;;;1.15;0.55;;;21.70;58.70;;;;;;639507;224;26792;-69
2022/07/04 08:18:47;;;;;;;0.85;0.60;;;21.60;58.00;;;;;;639162;224;26791;-67
2022/07/04 08:21:14;;;;;;;0.55;0.55;;;21.70;58.30;;;;;;639196;224;26787;-67
2022/07/04 08:23:41;;;;;;;1.37;0.70;;;21.50;58.00;;;;;;639216;224;26573;-67
2022/07/04 08:26:09;;;;;;;0.62;0.62;;;21.40;58.20;;;;;;639874;221;26880;-67
2022/07/04 08:28:37;;;;;;;0.77;0.77;;;21.20;56.80;;;;;;642293;221;26577;-67
2022/07/04 08:31:05;;;;;;;1.87;0.68;;;21.40;57.10;;;;;;644291;217;26583;-68
2022/07/04 08:33:33;;;;;;;2.17;0.55;;;21.30;57.10;;;;;;642846;221;26570;-66
2022/07/04 08:36:00;;;;;;;1.75;0.70;;;21.50;57.10;;;;;;645821;221;26574;-67
2022/07/04 08:38:28;;;;;;;0.60;0.60;;;21.40;57.70;;;;;;641848;221;26761;-67
2022/07/04 08:40:56;;;;;;;1.12;0.70;;;21.30;57.80;;;;;;643091;221;26880;-67
2022/07/04 08:43:24;;;;;;;1.10;0.70;;;21.30;58.20;;;;;;642515;221;26894;-67
2022/07/04 08:45:51;;;;;;;0.75;0.75;;;21.40;58.30;;;;;;643859;221;26570;-67
2022/07/04 08:48:18;;;;;;;0.77;0.70;;;21.80;58.30;;;;;;642935;221;26749;-67
2022/07/04 08:50:46;;;;;;;0.70;0.70;;;21.90;58.20;;;;;;644209;221;26535;-67
2022/07/04 08:53:13;;;;;;;0.98;0.90;;;22.00;58.10;;;;;;641015;221;26574;-66
2022/07/04 09:00:48;;;;;;;0.98;0.70;;;22.40;57.80;;;;;;649984;220;26613;-66
2022/07/04 09:03:15;;;;;;;0.60;0.60;;;22.90;56.50;;;;;;647225;221;26795;-66
2022/07/04 09:05:42;;;;;;;0.65;0.60;;;22.60;54.70;;;;;;649603;221;26566;-66
2022/07/04 09:08:09;;;;;;;0.73;0.68;;;22.40;55.80;;;;;;650697;221;27216;-67
2022/07/04 09:10:37;;;;;;;2.50;0.80;;;22.20;56.60;;;;;;652166;217;26600;-66
2022/07/04 09:13:05;;;;;;;0.90;0.75;;;22.10;56.60;;;;;;652148;220;26780;-71
2022/07/04 09:15:32;;;;;;;1.92;0.57;;;22.40;56.50;;;;;;643847;220;26581;-66
2022/07/04 09:18:00;;;;;;;1.85;0.70;;;22.60;56.70;;;;;;639648;221;26577;-62
2022/07/04 09:20:29;;;;;;;1.42;0.70;;;22.80;56.60;;;;;;639137;221;26586;-62
2022/07/04 09:22:56;;;;;;;0.60;0.60;;;22.70;56.50;;;;;;640182;221;26559;-62
2022/07/04 09:25:24;;;;;;;0.75;0.60;;;22.90;57.40;;;;;;645218;221;26565;-61
2022/07/04 09:27:52;;;;;;;0.88;0.80;;;22.80;57.00;;;;;;647079;221;26561;-62
2022/07/04 09:30:21;;;;;;;0.80;0.80;;;22.90;57.30;;;;;;645166;221;26559;-63
2022/07/04 09:32:50;;;;;;;1.77;0.85;;;22.90;57.30;;;;;;642614;221;26565;-62
2022/07/04 09:35:17;;;;;;;0.70;0.70;;;22.50;55.90;;;;;;639465;218;26559;-63
2022/07/04 09:37:45;;;;;;;0.82;0.70;;;22.90;55.50;;;;;;647308;221;26486;-65
2022/07/04 09:40:29;;;;;;;1.85;0.90;;;22.80;55.40;;;;;;638116;223;26572;-62
2022/07/04 09:42:57;;;;;;;0.57;0.57;;;23.20;55.10;;;;;;638171;221;26570;-62
2022/07/04 09:45:24;;;;;;;0.70;0.70;;;23.20;54.50;;;;;;646934;221;26501;-62
2022/07/04 09:47:54;;;;;;;1.05;0.95;;;23.50;52.50;;;;;;638795;224;26599;-62
2022/07/04 09:50:21;;;;;;;1.17;0.70;;;23.50;50.90;;;;;;644855;218;26592;-62
2022/07/04 09:52:56;;;;;;;0.65;0.65;;;23.20;51.30;;;;;;641181;221;26548;-63
2022/07/04 09:55:26;;;;;;;0.68;0.68;;;23.20;51.30;;;;;;638491;224;26563;-62
2022/07/04 09:57:53;;;;;;;1.55;0.80;;;23.50;51.30;;;;;;637463;221;26749;-62
2022/07/04 10:00:31;;;;;;;1.45;0.80;;;23.60;51.50;;;;;;645089;219;26604;-62
2022/07/04 10:02:58;;;;;;;2.30;1.02;;;23.60;51.70;;;;;;640212;221;26586;-62
2022/07/04 10:05:25;;;;;;;2.00;0.93;;;24.00;51.60;;;;;;635803;224;26866;-61
2022/07/04 10:07:54;;;;;;;1.73;0.80;;;24.30;50.50;;;;;;638603;221;26527;-61
2022/07/04 10:10:29;;;;;;;0.50;0.50;;;24.60;48.60;;;;;;637895;225;26516;-61
2022/07/04 10:12:57;;;;;;;1.90;0.82;;;24.60;48.60;;;;;;647775;221;26560;-62
2022/07/04 10:15:24;;;;;;;2.20;0.60;;;25.00;48.40;;;;;;637819;221;26581;-62
2022/07/04 10:17:52;;;;;;;0.98;0.70;;;24.70;48.80;;;;;;637864;225;27063;-62
2022/07/04 10:20:19;;;;;;;1.62;0.77;;;24.50;49.00;;;;;;638681;225;26592;-67
2022/07/04 10:22:46;;;;;;;0.95;0.73;;;24.30;49.40;;;;;;639515;221;26574;-61
2022/07/04 10:25:13;;;;;;;0.70;0.65;;;24.40;48.90;;;;;;642043;220;26522;-61
2022/07/04 10:27:41;;;;;;;1.10;0.75;;;24.70;48.30;;;;;;639141;224;26562;-61
2022/07/04 10:30:11;;;;;;;1.42;0.75;;;24.60;47.30;;;;;;638928;225;26596;-61
2022/07/04 10:32:39;;;;;;;1.27;0.70;;;24.30;47.80;;;;;;647030;221;26559;-61
2022/07/04 10:35:07;;;;;;;0.73;0.73;;;24.50;48.10;;;;;;646122;221;26539;-61
2022/07/04 10:37:46;;;;;;;0.88;0.70;;;24.50;48.10;;;;;;639434;224;26534;-63
2022/07/04 10:40:13;;;;;;;0.88;0.82;;;24.70;47.80;;;;;;639121;225;26593;-61
2022/07/04 10:42:41;;;;;;;0.70;0.70;;;24.10;48.30;;;;;;635174;221;26557;-62
2022/07/04 10:45:08;;;;;;;1.83;0.82;;;24.10;48.20;;;;;;637672;224;26532;-62
2022/07/04 10:47:35;;;;;;;1.35;0.90;;;23.70;48.50;;;;;;641826;221;26766;-64
2022/07/04 10:50:04;;;;;;;1.00;0.60;;;24.10;48.50;;;;;;645704;221;26527;-63
2022/07/04 10:52:32;;;;;;;0.93;0.90;;;24.10;48.50;;;;;;637751;225;26809;-63
2022/07/04 10:55:00;;;;;;;0.98;0.80;;;24.40;48.10;;;;;;638959;225;26570;-63
2022/07/04 10:57:26;;;;;;;0.70;0.70;;;24.50;47.80;;;;;;649069;221;26766;-63
2022/07/04 11:00:10;;;;;;;2.25;1.00;;;24.40;48.10;;;;;;645680;221;26525;-62
2022/07/04 11:02:38;;;;;;;2.87;1.00;;;24.50;47.60;;;;;;650703;221;26480;-67
2022/07/04 11:05:12;;;;;;;3.65;1.10;;;24.50;47.50;;;;;;650827;221;26481;-65
2022/07/04 11:07:54;;;;;;;117.03;23.33;;;24.90;47.60;;;;;;650965;221;26524;-65
2022/07/04 11:10:22;;;;;;;124.30;28.85;;;24.50;48.30;;;;;;649449;218;26569;-65
2022/07/04 11:13:09;;;;;;;93.97;21.30;;;24.40;48.20;;;;;;650872;221;26535;-63
2022/07/04 11:15:56;;;;;;;74.20;16.15;;;24.40;48.60;;;;;;650603;221;26537;-63
2022/07/04 11:18:24;;;;;;;35.45;7.68;;;24.60;48.80;;;;;;650203;220;26736;-63
2022/07/04 11:20:51;;;;;;;20.83;5.87;;;24.60;48.50;;;;;;651197;218;26522;-63
2022/07/04 11:23:19;;;;;;;20.58;4.57;;;24.50;48.40;;;;;;651102;221;26754;-63
2022/07/04 11:25:48;;;;;;;20.08;4.85;;;24.40;48.40;;;;;;650894;221;26490;-63
2022/07/04 11:28:19;;;;;;;9.63;2.67;;;24.60;48.30;;;;;;651086;220;26491;-63
2022/07/04 11:30:49;;;;;;;10.38;2.50;;;24.60;48.30;;;;;;651179;221;26564;-64
2022/07/04 11:33:18;;;;;;;5.28;1.87;;;24.70;47.50;;;;;;652244;219;26774;-63
2022/07/04 11:35:45;;;;;;;5.93;2.00;;;25.50;46.60;;;;;;652206;220;26536;-64
2022/07/04 11:38:13;;;;;;;2.83;1.52;;;25.50;46.60;;;;;;649336;220;26530;-63
2022/07/04 11:45:49;;;;;;;1.12;0.90;;;25.80;45.60;;;;;;651429;219;26601;-63
2022/07/04 11:48:26;;;;;;;2.72;1.12;;;25.80;45.90;;;;;;651403;221;26565;-63
2022/07/04 11:50:54;;;;;;;0.88;0.88;;;25.70;45.80;;;;;;651300;221;26942;-64
2022/07/04 11:53:21;;;;;;;0.73;0.73;;;25.10;46.10;;;;;;651136;221;26512;-64
2022/07/04 11:55:55;;;;;;;0.60;0.60;;;25.00;46.80;;;;;;651163;221;26705;-64
2022/07/04 11:58:21;;;;;;;0.75;0.70;;;24.90;46.60;;;;;;650772;221;26512;-64
2022/07/04 12:00:48;;;;;;;0.70;0.70;;;24.70;46.80;;;;;;650974;221;26753;-64
2022/07/04 12:03:15;;;;;;;1.37;0.82;;;24.80;47.20;;;;;;651149;221;26509;-64
2022/07/04 12:05:43;;;;;;;0.45;0.45;;;25.20;46.50;;;;;;651126;221;26829;-64
2022/07/04 12:08:10;;;;;;;0.95;0.70;;;25.10;46.20;;;;;;643675;220;26506;-65
2022/07/04 12:10:37;;;;;;;0.70;0.70;;;25.20;46.20;;;;;;641264;220;26813;-64
2022/07/04 12:13:07;;;;;;;0.82;0.77;;;24.70;46.10;;;;;;642265;221;26564;-64
2022/07/04 12:15:43;;;;;;;0.70;0.70;;;24.50;46.20;;;;;;644538;219;26574;-63
2022/07/04 12:18:17;;;;;;;0.85;0.60;;;24.40;46.70;;;;;;637193;225;26571;-62
2022/07/04 12:20:43;;;;;;;0.60;0.60;;;24.40;46.50;;;;;;638474;221;26764;-63
2022/07/04 12:23:11;;;;;;;0.45;0.45;;;24.80;46.20;;;;;;642685;221;26505;-63
2022/07/04 12:25:39;;;;;;;1.30;0.85;;;25.20;45.40;;;;;;650718;221;26566;-63
2022/07/04 12:28:08;;;;;;;0.90;0.90;;;25.40;44.70;;;;;;647436;221;26570;-63
2022/07/04 12:30:36;;;;;;;0.60;0.60;;;25.30;44.20;;;;;;649085;221;26592;-63
2022/07/04 12:33:04;;;;;;;2.08;1.00;;;25.50;44.10;;;;;;642100;221;26529;-63
2022/07/04 12:35:32;;;;;;;1.27;0.90;;;25.50;44.10;;;;;;644193;221;26595;-63
2022/07/04 12:38:01;;;;;;;0.65;0.60;;;25.80;44.10;;;;;;638208;225;26529;-63
2022/07/04 12:40:28;;;;;;;1.30;1.20;;;26.60;43.30;;;;;;638552;225;26539;-63
2022/07/04 12:42:56;;;;;;;1.05;0.80;;;27.20;41.20;;;;;;640536;223;26591;-63
2022/07/04 12:45:24;;;;;;;0.60;0.60;;;26.40;42.00;;;;;;643607;220;26579;-63
2022/07/04 12:47:54;;;;;;;0.40;0.40;;;26.10;42.50;;;;;;638682;225;26550;-63
2022/07/04 12:50:26;;;;;;;2.42;0.95;;;26.10;42.90;;;;;;639140;225;26499;-64
2022/07/04 12:52:52;;;;;;;1.27;0.55;;;26.10;42.80;;;;;;638538;224;26553;-65
2022/07/04 12:55:19;;;;;;;0.50;0.50;;;26.70;42.40;;;;;;638909;223;26727;-65
2022/07/04 12:57:47;;;;;;;1.30;0.88;;;28.10;40.20;;;;;;638906;224;26504;-65
2022/07/04 13:00:15;;;;;;;0.95;0.88;;;28.80;39.40;;;;;;638257;224;26538;-65
2022/07/04 13:02:43;;;;;;;0.70;0.70;;;28.70;39.30;;;;;;648273;221;26792;-65
2022/07/04 13:05:11;;;;;;;0.60;0.60;;;28.70;38.00;;;;;;639251;221;26787;-65
2022/07/04 13:07:37;;;;;;;0.60;0.60;;;28.40;38.00;;;;;;639564;220;26743;-65
2022/07/04 13:10:05;;;;;;;0.62;0.62;;;28.40;37.40;;;;;;639843;221;26585;-64
2022/07/04 13:12:33;;;;;;;0.80;0.73;;;28.40;37.10;;;;;;638856;221;26552;-65